Time;durP1;ratioP1;P1;durP2;ratioP2;P2;SDS_P1;SDS_P2;PMS_P1;PMS_P2;Temp;Humidity;BMP_temperature;BMP_pressure;BME280_temperature;BME280_humidity;BME280_pressure;Samples;Min_cycle;Max_cycle;Signal;HPM_P1;HPM_P2
2021/12/15 00:01:05;;;;;;;2.27;2.07;;;19.40;40.70;;;;;;5003541;28;20440;-62
2021/12/15 00:03:32;;;;;;;2.60;2.40;;;19.40;40.70;;;;;;5004374;28;20452;-63
2021/12/15 00:05:58;;;;;;;2.50;2.30;;;19.40;40.70;;;;;;5002068;28;21025;-63
2021/12/15 00:08:24;;;;;;;3.37;2.03;;;19.40;40.70;;;;;;5005523;28;20487;-63
2021/12/15 00:10:50;;;;;;;2.10;2.00;;;19.40;40.80;;;;;;5001944;28;20443;-62
2021/12/15 00:13:19;;;;;;;3.03;2.60;;;19.40;40.70;;;;;;4999728;28;20227;-62
2021/12/15 00:15:46;;;;;;;4.27;1.80;;;19.40;40.70;;;;;;5003605;28;20500;-62
2021/12/15 00:18:13;;;;;;;2.20;2.10;;;19.40;40.70;;;;;;5004089;28;20446;-62
2021/12/15 00:20:39;;;;;;;1.97;1.87;;;19.40;40.70;;;;;;5000188;28;20479;-62
2021/12/15 00:23:06;;;;;;;2.97;2.60;;;19.40;40.80;;;;;;5000601;28;20501;-62
2021/12/15 00:25:35;;;;;;;2.40;2.13;;;19.40;40.80;;;;;;4998862;28;20522;-62
2021/12/15 00:28:01;;;;;;;2.83;2.63;;;19.40;40.70;;;;;;4999932;28;20967;-62
2021/12/15 00:30:28;;;;;;;1.93;1.83;;;19.40;40.80;;;;;;4999892;28;20450;-62
2021/12/15 00:32:54;;;;;;;2.00;1.90;;;19.40;40.70;;;;;;5020488;28;24632;-63
2021/12/15 00:35:21;;;;;;;4.10;2.77;;;19.40;40.70;;;;;;5004748;28;20451;-63
2021/12/15 00:37:47;;;;;;;2.00;1.77;;;19.40;40.70;;;;;;5003674;28;20459;-62
2021/12/15 00:40:20;;;;;;;2.30;2.20;;;19.40;40.80;;;;;;5001793;28;20441;-62
2021/12/15 00:42:46;;;;;;;1.90;1.80;;;19.40;40.70;;;;;;5001356;28;20425;-62
2021/12/15 00:45:12;;;;;;;2.20;2.10;;;19.40;40.70;;;;;;5000716;28;20902;-62
2021/12/15 00:47:38;;;;;;;2.20;2.00;;;19.40;40.70;;;;;;5003593;28;20449;-63
2021/12/15 00:50:07;;;;;;;2.80;2.30;;;19.40;40.70;;;;;;4998385;28;20865;-64
2021/12/15 00:52:43;;;;;;;2.03;1.93;;;19.40;40.80;;;;;;5005459;28;20220;-62
2021/12/15 00:55:13;;;;;;;1.97;1.83;;;19.40;40.80;;;;;;5003572;28;20412;-62
2021/12/15 00:57:39;;;;;;;2.47;1.90;;;19.40;40.70;;;;;;5002084;28;20855;-61
2021/12/15 01:00:09;;;;;;;2.40;2.03;;;19.40;40.80;;;;;;5000753;28;20477;-62
2021/12/15 01:02:34;;;;;;;2.03;1.80;;;19.40;40.70;;;;;;5000856;28;20224;-62
2021/12/15 01:05:00;;;;;;;2.20;2.10;;;19.40;40.80;;;;;;4998271;28;20983;-62
2021/12/15 01:07:26;;;;;;;2.17;2.07;;;19.40;40.80;;;;;;5000624;28;20232;-62
2021/12/15 01:09:55;;;;;;;1.90;1.77;;;19.40;40.80;;;;;;5001332;28;20274;-62
2021/12/15 01:20:54;;;;;;;2.47;2.10;;;19.40;40.80;;;;;;5002020;28;20500;-61
2021/12/15 01:23:24;;;;;;;2.70;1.70;;;19.40;40.80;;;;;;5001885;28;20513;-61
2021/12/15 01:25:57;;;;;;;2.00;1.90;;;19.40;40.80;;;;;;5001165;28;20461;-62
2021/12/15 01:28:24;;;;;;;2.23;2.03;;;19.40;40.80;;;;;;5000898;28;20829;-61
2021/12/15 01:30:52;;;;;;;1.90;1.80;;;19.40;41.60;;;;;;5000637;28;20905;-61
2021/12/15 01:33:17;;;;;;;2.03;1.83;;;19.40;40.80;;;;;;5001439;28;20449;-61
2021/12/15 01:35:46;;;;;;;1.80;1.70;;;19.40;40.80;;;;;;4998831;28;20431;-61
2021/12/15 01:38:12;;;;;;;2.33;2.23;;;19.40;40.80;;;;;;5000863;28;20271;-61
2021/12/15 01:40:40;;;;;;;1.70;1.60;;;19.40;40.90;;;;;;5003626;28;20458;-62
2021/12/15 01:43:17;;;;;;;2.20;2.10;;;19.40;40.90;;;;;;5003436;28;20474;-61
2021/12/15 01:48:35;;;;;;;1.70;1.60;;;19.40;40.80;;;;;;5000756;28;20516;-62
2021/12/15 01:51:04;;;;;;;2.03;1.93;;;19.40;40.80;;;;;;5000989;28;20453;-61
2021/12/15 01:53:29;;;;;;;1.50;1.40;;;19.30;40.80;;;;;;5000215;28;20439;-61
2021/12/15 01:55:55;;;;;;;2.10;2.00;;;19.40;40.80;;;;;;4999994;28;20441;-61
2021/12/15 01:58:22;;;;;;;1.80;1.70;;;19.40;40.90;;;;;;5002671;28;20220;-61
2021/12/15 02:01:05;;;;;;;2.13;1.93;;;19.40;40.90;;;;;;4996816;28;20236;-61
2021/12/15 02:03:31;;;;;;;2.30;2.13;;;19.40;40.80;;;;;;4998875;28;20559;-61
2021/12/15 02:05:58;;;;;;;2.17;2.00;;;19.40;40.90;;;;;;5001966;28;20450;-61
2021/12/15 02:08:24;;;;;;;1.80;1.70;;;19.40;40.90;;;;;;5002099;28;20581;-61
2021/12/15 02:10:50;;;;;;;1.80;1.70;;;19.40;40.90;;;;;;5000060;28;20454;-61
2021/12/15 02:13:18;;;;;;;1.77;1.67;;;19.40;40.90;;;;;;5001360;28;20956;-61
2021/12/15 02:15:53;;;;;;;2.20;2.00;;;19.40;40.80;;;;;;5000063;28;20216;-61
2021/12/15 02:18:23;;;;;;;2.10;2.00;;;19.40;40.80;;;;;;4999561;28;21002;-61
2021/12/15 02:20:57;;;;;;;2.30;2.10;;;19.40;40.90;;;;;;5000304;28;20874;-61
2021/12/15 02:23:31;;;;;;;2.00;1.90;;;19.40;40.80;;;;;;5002468;28;20496;-61
2021/12/15 02:25:58;;;;;;;1.77;1.63;;;19.40;40.80;;;;;;4999881;28;20442;-60
2021/12/15 02:28:24;;;;;;;1.83;1.73;;;19.40;40.80;;;;;;4997399;28;20424;-61
2021/12/15 02:31:09;;;;;;;3.30;2.00;;;19.40;40.90;;;;;;5000692;28;20450;-61
2021/12/15 02:39:07;;;;;;;1.83;1.73;;;19.40;40.90;;;;;;5000415;28;20834;-60
2021/12/15 02:41:34;;;;;;;1.70;1.60;;;19.40;40.90;;;;;;5001670;28;20444;-60
2021/12/15 02:44:06;;;;;;;1.63;1.53;;;19.40;40.90;;;;;;4997162;28;20474;-61
2021/12/15 02:46:33;;;;;;;1.80;1.70;;;19.40;40.90;;;;;;5003366;28;20891;-60
2021/12/15 02:49:00;;;;;;;1.67;1.57;;;19.40;41.00;;;;;;5003106;28;20499;-60
2021/12/15 02:51:27;;;;;;;1.90;1.80;;;19.40;40.90;;;;;;4997848;28;20420;-60
2021/12/15 02:53:54;;;;;;;1.57;1.47;;;19.40;40.90;;;;;;5004121;28;20477;-60
2021/12/15 02:56:20;;;;;;;1.77;1.67;;;19.40;40.80;;;;;;5001858;28;20446;-60
2021/12/15 02:58:54;;;;;;;1.77;1.67;;;19.40;40.90;;;;;;5005427;28;20953;-61
2021/12/15 03:01:33;;;;;;;1.90;1.80;;;19.40;40.90;;;;;;5005867;28;20238;-60
2021/12/15 03:07:09;;;;;;;1.70;1.60;;;19.40;40.80;;;;;;5009128;28;20484;-60
2021/12/15 03:18:19;;;;;;;1.70;1.60;;;19.40;40.80;;;;;;4967933;28;20458;-60
2021/12/15 03:20:54;;;;;;;2.17;1.50;;;19.30;40.80;;;;;;4970985;28;20506;-60
2021/12/15 03:23:38;;;;;;;1.70;1.60;;;19.30;40.80;;;;;;4988380;28;20494;-60
2021/12/15 03:26:05;;;;;;;1.70;1.60;;;19.30;40.80;;;;;;5003380;28;20974;-61
2021/12/15 03:36:52;;;;;;;1.50;1.40;;;19.30;40.80;;;;;;4998907;28;20417;-60
2021/12/15 03:39:20;;;;;;;1.80;1.70;;;19.30;40.90;;;;;;5005317;28;20472;-60
2021/12/15 03:41:52;;;;;;;1.67;1.47;;;19.30;40.80;;;;;;5000772;28;20532;-61
2021/12/15 03:44:18;;;;;;;2.03;1.80;;;19.30;40.80;;;;;;5004407;28;20512;-60
2021/12/15 03:46:44;;;;;;;2.00;1.80;;;19.30;40.90;;;;;;5009769;28;20900;-59
2021/12/15 03:49:10;;;;;;;1.60;1.50;;;19.30;40.90;;;;;;5003639;28;20488;-60
2021/12/15 03:51:36;;;;;;;1.70;1.60;;;19.30;40.90;;;;;;5005617;28;20665;-59
2021/12/15 03:54:04;;;;;;;1.50;1.40;;;19.30;40.80;;;;;;5003403;28;20442;-60
2021/12/15 03:56:30;;;;;;;1.67;1.57;;;19.30;40.80;;;;;;5002600;28;20504;-60
2021/12/15 03:58:56;;;;;;;3.27;1.60;;;19.30;40.90;;;;;;5003862;28;20921;-60
2021/12/15 04:01:23;;;;;;;1.70;1.60;;;19.30;40.80;;;;;;5002555;28;20255;-60
2021/12/15 04:03:52;;;;;;;1.90;1.80;;;19.30;40.80;;;;;;5003779;28;20446;-60
2021/12/15 04:06:22;;;;;;;1.93;1.73;;;19.30;40.80;;;;;;5004419;28;20481;-60
2021/12/15 04:08:48;;;;;;;1.80;1.70;;;19.30;40.90;;;;;;5003377;28;20462;-60
2021/12/15 04:11:15;;;;;;;1.77;1.40;;;19.30;40.90;;;;;;5007228;28;20449;-59
2021/12/15 04:13:45;;;;;;;1.47;1.37;;;19.30;40.90;;;;;;5001376;28;20994;-60
2021/12/15 04:16:26;;;;;;;1.67;1.57;;;19.30;40.90;;;;;;5002969;28;20449;-60
2021/12/15 04:18:52;;;;;;;2.53;1.50;;;19.30;40.90;;;;;;5001684;28;20450;-59
2021/12/15 04:21:17;;;;;;;1.73;1.63;;;19.30;40.90;;;;;;5003872;28;20442;-59
2021/12/15 04:23:50;;;;;;;1.97;1.87;;;19.30;40.80;;;;;;4999713;28;20227;-60
2021/12/15 04:26:16;;;;;;;1.20;1.10;;;19.30;40.80;;;;;;5005083;28;20250;-59
2021/12/15 04:28:42;;;;;;;1.57;1.47;;;19.30;40.90;;;;;;4999821;28;20454;-60
2021/12/15 04:31:10;;;;;;;1.70;1.60;;;19.30;40.80;;;;;;4999581;28;20445;-61
2021/12/15 04:33:56;;;;;;;1.40;1.30;;;19.30;40.80;;;;;;5000767;28;20955;-61
2021/12/15 04:36:26;;;;;;;1.63;1.53;;;19.30;40.80;;;;;;5007117;28;20460;-60
2021/12/15 04:38:54;;;;;;;1.40;1.30;;;19.30;40.80;;;;;;5000126;28;20478;-61
2021/12/15 04:41:21;;;;;;;1.60;1.50;;;19.30;40.90;;;;;;5006692;28;20469;-62
2021/12/15 04:43:56;;;;;;;1.47;1.37;;;19.30;40.90;;;;;;5003728;28;20446;-61
2021/12/15 04:46:30;;;;;;;1.77;1.67;;;19.30;40.80;;;;;;4999836;28;20508;-60
2021/12/15 04:48:57;;;;;;;1.60;1.50;;;19.30;40.80;;;;;;5001791;28;20506;-61
2021/12/15 04:51:24;;;;;;;1.50;1.30;;;19.30;40.90;;;;;;5007923;28;20913;-60
2021/12/15 04:53:52;;;;;;;1.63;1.53;;;19.30;40.90;;;;;;5002374;28;20931;-60
2021/12/15 04:56:19;;;;;;;1.50;1.40;;;19.30;40.80;;;;;;5002358;28;20424;-60
2021/12/15 04:58:45;;;;;;;1.60;1.50;;;19.30;40.90;;;;;;4998676;28;20424;-60
2021/12/15 05:01:12;;;;;;;1.57;1.47;;;19.30;40.90;;;;;;5002655;28;20461;-60
2021/12/15 05:03:39;;;;;;;1.47;1.37;;;19.30;40.90;;;;;;4999476;28;20448;-60
2021/12/15 05:06:05;;;;;;;1.30;1.20;;;19.30;40.80;;;;;;5002149;28;20791;-61
2021/12/15 05:08:32;;;;;;;1.33;1.23;;;19.30;40.80;;;;;;4999283;28;20503;-60
2021/12/15 05:10:59;;;;;;;1.30;1.20;;;19.30;40.80;;;;;;5001756;28;20453;-60
2021/12/15 05:13:26;;;;;;;1.60;1.50;;;19.30;40.80;;;;;;4999974;28;20948;-61
2021/12/15 05:15:52;;;;;;;1.20;1.10;;;19.30;40.80;;;;;;5002103;28;20468;-60
2021/12/15 05:18:17;;;;;;;1.73;1.30;;;19.30;40.90;;;;;;5004921;28;20456;-60
2021/12/15 05:20:48;;;;;;;1.43;1.33;;;19.30;40.80;;;;;;5000681;28;20233;-60
2021/12/15 05:23:16;;;;;;;1.40;1.30;;;19.30;40.80;;;;;;4999855;28;20216;-60
2021/12/15 05:25:42;;;;;;;1.30;1.20;;;19.30;40.80;;;;;;5005745;28;20457;-60
2021/12/15 05:28:08;;;;;;;1.60;1.50;;;19.30;40.80;;;;;;5000223;28;20524;-60
2021/12/15 05:30:35;;;;;;;1.40;1.30;;;19.40;40.80;;;;;;5000196;28;20537;-60
2021/12/15 05:33:03;;;;;;;1.50;1.40;;;19.30;40.80;;;;;;5000306;28;20220;-60
2021/12/15 05:35:29;;;;;;;1.40;1.30;;;19.30;40.80;;;;;;5000023;28;20798;-60
2021/12/15 05:37:57;;;;;;;1.70;1.60;;;19.30;40.70;;;;;;5000938;28;20444;-60
2021/12/15 05:40:25;;;;;;;1.43;1.33;;;19.30;40.80;;;;;;5001723;28;20535;-60
2021/12/15 05:42:51;;;;;;;1.40;1.30;;;19.40;40.80;;;;;;5001784;28;20424;-61
2021/12/15 05:45:17;;;;;;;1.40;1.30;;;19.40;40.80;;;;;;5001286;28;20424;-63
2021/12/15 05:47:44;;;;;;;1.30;1.20;;;19.40;40.80;;;;;;5002332;28;20843;-64
2021/12/15 05:50:12;;;;;;;1.23;1.13;;;19.40;40.70;;;;;;4999856;28;20678;-64
2021/12/15 05:52:38;;;;;;;1.27;1.17;;;19.50;40.70;;;;;;4999171;28;20819;-64
2021/12/15 05:55:11;;;;;;;1.50;1.40;;;19.50;40.60;;;;;;4998557;28;20449;-65
2021/12/15 05:57:36;;;;;;;1.33;1.23;;;19.50;40.50;;;;;;5000112;28;20473;-63
2021/12/15 06:00:09;;;;;;;1.47;1.37;;;19.60;40.50;;;;;;5001146;28;20498;-64
2021/12/15 06:02:35;;;;;;;1.30;1.20;;;19.60;40.50;;;;;;5005393;28;20224;-64
2021/12/15 06:05:01;;;;;;;1.50;1.40;;;19.60;40.50;;;;;;4999648;28;20477;-64
2021/12/15 06:07:27;;;;;;;1.73;1.40;;;19.60;40.30;;;;;;4996196;28;20239;-64
2021/12/15 06:09:52;;;;;;;1.43;1.33;;;19.60;40.30;;;;;;5001048;28;20424;-63
2021/12/15 06:12:18;;;;;;;1.53;1.40;;;19.60;40.40;;;;;;5002448;28;20216;-63
2021/12/15 06:14:44;;;;;;;1.20;1.10;;;19.60;40.50;;;;;;4998378;28;20268;-63
2021/12/15 06:17:12;;;;;;;1.30;1.20;;;19.60;40.40;;;;;;4997658;28;20599;-63
2021/12/15 06:19:37;;;;;;;1.23;1.13;;;19.60;40.50;;;;;;5004975;28;20243;-63
2021/12/15 06:22:05;;;;;;;1.67;1.57;;;19.60;40.50;;;;;;5000421;28;20462;-64
2021/12/15 06:24:32;;;;;;;1.93;1.30;;;19.60;40.50;;;;;;4997578;28;20220;-64
2021/12/15 06:27:04;;;;;;;1.33;1.23;;;19.60;40.50;;;;;;4998764;28;20446;-66
2021/12/15 06:29:29;;;;;;;1.50;1.33;;;19.60;41.30;;;;;;5002095;28;20977;-65
2021/12/15 06:31:56;;;;;;;1.50;1.40;;;19.60;40.60;;;;;;4999115;28;20445;-64
2021/12/15 06:34:22;;;;;;;1.53;1.43;;;19.60;40.60;;;;;;4998221;28;20221;-62
2021/12/15 06:36:48;;;;;;;1.20;1.10;;;19.60;41.30;;;;;;4997141;28;20459;-66
2021/12/15 06:39:15;;;;;;;1.40;1.30;;;19.60;40.60;;;;;;4996807;28;20591;-66
2021/12/15 06:41:41;;;;;;;1.87;1.30;;;19.60;40.60;;;;;;5001070;28;20486;-65
2021/12/15 06:44:07;;;;;;;1.70;1.10;;;19.60;40.60;;;;;;4995691;28;20451;-65
2021/12/15 07:00:13;;;;;;;1.80;1.70;;;19.60;40.60;;;;;;4995899;28;20512;-64
2021/12/15 07:02:40;;;;;;;1.83;1.73;;;19.60;40.60;;;;;;4998871;28;21036;-64
2021/12/15 07:05:08;;;;;;;1.90;1.80;;;19.60;40.70;;;;;;5000262;28;20490;-64
2021/12/15 07:07:35;;;;;;;1.70;1.60;;;19.60;40.60;;;;;;5003160;28;20423;-65
2021/12/15 07:10:01;;;;;;;3.17;2.10;;;19.50;40.50;;;;;;4996682;28;20454;-64
2021/12/15 07:12:26;;;;;;;1.90;1.80;;;19.60;40.70;;;;;;5001550;28;20536;-63
2021/12/15 07:14:52;;;;;;;2.77;2.43;;;19.50;40.60;;;;;;5001049;28;20531;-66
2021/12/15 07:17:22;;;;;;;2.00;1.80;;;19.60;40.70;;;;;;5003831;28;20578;-65
2021/12/15 07:20:05;;;;;;;2.30;1.70;;;19.60;40.70;;;;;;4997639;28;20319;-65
2021/12/15 07:22:43;;;;;;;1.70;1.60;;;19.60;40.70;;;;;;5001803;28;20476;-64
2021/12/15 07:25:12;;;;;;;2.20;2.00;;;19.60;40.70;;;;;;4999742;28;20453;-65
2021/12/15 07:27:38;;;;;;;2.13;1.80;;;19.50;40.60;;;;;;4999251;28;20454;-64
2021/12/15 07:30:05;;;;;;;2.20;2.00;;;19.60;40.70;;;;;;4998068;28;20491;-66
2021/12/15 07:32:31;;;;;;;2.20;2.10;;;19.60;40.70;;;;;;4998839;28;20224;-64
2021/12/15 07:34:56;;;;;;;1.70;1.60;;;19.60;40.70;;;;;;4997009;28;20447;-64
2021/12/15 07:37:22;;;;;;;2.10;2.00;;;19.60;40.70;;;;;;4996208;28;20227;-64
2021/12/15 07:39:57;;;;;;;2.63;2.13;;;19.60;40.70;;;;;;5007577;28;20231;-64
2021/12/15 07:42:32;;;;;;;3.83;2.70;;;19.60;40.80;;;;;;5003884;28;20219;-64
2021/12/15 07:44:57;;;;;;;1.93;1.83;;;19.60;40.80;;;;;;5006706;28;20469;-64
2021/12/15 07:47:23;;;;;;;2.70;2.50;;;19.60;40.80;;;;;;5003221;28;21152;-64
2021/12/15 07:49:49;;;;;;;2.20;2.00;;;19.60;40.80;;;;;;5002758;28;20225;-65
2021/12/15 07:52:14;;;;;;;2.00;1.90;;;19.50;40.70;;;;;;5002437;28;20231;-64
2021/12/15 07:54:40;;;;;;;2.60;2.43;;;19.60;40.80;;;;;;5004216;28;20262;-64
2021/12/15 07:57:16;;;;;;;2.30;2.10;;;19.60;40.70;;;;;;5006049;28;20231;-67
2021/12/15 07:59:43;;;;;;;1.80;1.70;;;19.60;40.80;;;;;;5006376;28;20370;-65
2021/12/15 08:02:08;;;;;;;1.80;1.70;;;19.60;40.80;;;;;;5002116;28;20452;-65
2021/12/15 08:04:34;;;;;;;2.30;1.90;;;19.60;40.80;;;;;;5002846;28;20456;-66
2021/12/15 08:07:00;;;;;;;1.70;1.60;;;19.60;40.80;;;;;;5004539;28;20250;-64
2021/12/15 08:09:25;;;;;;;2.20;1.80;;;19.60;40.70;;;;;;5000734;28;20232;-65
2021/12/15 08:11:51;;;;;;;2.10;2.00;;;19.60;40.80;;;;;;5005713;28;20220;-64
2021/12/15 08:14:17;;;;;;;2.37;2.00;;;19.60;40.70;;;;;;5001005;28;20221;-64
2021/12/15 08:16:43;;;;;;;2.07;1.97;;;19.60;40.80;;;;;;5006893;28;20265;-64
2021/12/15 08:19:09;;;;;;;2.23;1.97;;;19.60;40.80;;;;;;5003718;28;20225;-64
2021/12/15 08:21:35;;;;;;;5.00;1.90;;;19.60;40.80;;;;;;4999638;28;20228;-64
2021/12/15 08:24:01;;;;;;;1.80;1.70;;;19.60;40.80;;;;;;5003540;28;20932;-65
2021/12/15 08:26:27;;;;;;;2.13;2.03;;;19.60;40.70;;;;;;5002353;28;20220;-66
2021/12/15 08:28:54;;;;;;;2.83;1.67;;;19.60;41.50;;;;;;5004873;28;20446;-64
2021/12/15 08:31:21;;;;;;;1.80;1.70;;;19.60;40.70;;;;;;5002829;28;20499;-64
2021/12/15 08:33:47;;;;;;;2.00;1.60;;;19.60;40.70;;;;;;5002939;28;20551;-64
2021/12/15 08:36:13;;;;;;;1.63;1.53;;;19.60;40.70;;;;;;5000102;28;20434;-64
2021/12/15 08:38:41;;;;;;;1.87;1.50;;;19.60;40.70;;;;;;5001904;28;20784;-64
2021/12/15 08:41:14;;;;;;;2.07;1.63;;;19.60;40.70;;;;;;5003121;28;20429;-64
2021/12/15 08:43:40;;;;;;;2.63;1.73;;;19.60;40.70;;;;;;5000216;28;20420;-64
2021/12/15 08:46:39;;;;;;;1.73;1.60;;;19.60;40.70;;;;;;5001086;28;20461;-64
2021/12/15 08:49:05;;;;;;;1.90;1.80;;;19.60;40.70;;;;;;4999809;28;20957;-65
2021/12/15 08:51:32;;;;;;;1.73;1.63;;;19.60;40.70;;;;;;5001975;28;20499;-65
2021/12/15 08:54:05;;;;;;;1.63;1.50;;;19.60;40.80;;;;;;5000661;28;20822;-64
2021/12/15 08:56:32;;;;;;;1.60;1.50;;;19.60;40.70;;;;;;5000988;28;20417;-64
2021/12/15 08:58:58;;;;;;;1.60;1.50;;;19.60;40.70;;;;;;5001098;28;20495;-65
2021/12/15 09:01:24;;;;;;;1.40;1.30;;;19.60;40.70;;;;;;5000317;28;20532;-64
2021/12/15 09:03:50;;;;;;;1.60;1.50;;;19.60;40.70;;;;;;4999589;28;20850;-63
2021/12/15 09:06:17;;;;;;;5.13;1.67;;;19.60;40.70;;;;;;5001037;28;20393;-65
2021/12/15 09:08:44;;;;;;;1.70;1.60;;;19.60;40.70;;;;;;5000528;28;20819;-65
2021/12/15 09:11:14;;;;;;;1.53;1.43;;;19.60;40.70;;;;;;5002071;28;20445;-64
2021/12/15 09:13:41;;;;;;;1.60;1.50;;;19.60;40.60;;;;;;5001548;28;20499;-65
2021/12/15 09:16:09;;;;;;;1.70;1.60;;;19.60;40.70;;;;;;5004870;28;20519;-64
2021/12/15 09:18:37;;;;;;;1.80;1.70;;;19.60;40.80;;;;;;5003443;28;20420;-64
2021/12/15 09:21:04;;;;;;;1.77;1.47;;;19.60;40.70;;;;;;5001613;28;20477;-64
2021/12/15 09:23:29;;;;;;;2.07;1.33;;;19.60;40.70;;;;;;5001650;28;20468;-63
2021/12/15 09:25:56;;;;;;;1.77;1.50;;;19.60;40.70;;;;;;4999186;28;20433;-64
2021/12/15 09:28:24;;;;;;;1.60;1.50;;;19.60;40.80;;;;;;5000308;28;20220;-63
2021/12/15 09:30:50;;;;;;;2.60;1.70;;;19.60;40.70;;;;;;5000077;28;20436;-64
2021/12/15 09:33:22;;;;;;;1.50;1.40;;;19.60;40.80;;;;;;5002681;28;20457;-63
2021/12/15 09:35:49;;;;;;;2.53;1.40;;;19.60;40.80;;;;;;5000074;28;20232;-63
2021/12/15 09:38:17;;;;;;;1.50;1.40;;;19.60;40.80;;;;;;4999958;28;20826;-63
2021/12/15 09:40:43;;;;;;;1.70;1.60;;;19.60;40.80;;;;;;4999089;28;20450;-63
2021/12/15 09:43:11;;;;;;;1.50;1.40;;;19.60;40.80;;;;;;4998199;28;20542;-62
2021/12/15 09:45:54;;;;;;;1.87;1.77;;;19.60;40.80;;;;;;4997500;28;20442;-62
2021/12/15 10:18:27;;;;;;;1.50;1.40;;;19.50;40.80;;;;;;5000070;28;20502;-63
2021/12/15 10:20:54;;;;;;;1.50;1.40;;;19.50;40.90;;;;;;4998317;28;20989;-63
2021/12/15 10:23:25;;;;;;;1.70;1.60;;;19.50;40.90;;;;;;5000691;28;20504;-63
2021/12/15 10:25:54;;;;;;;1.50;1.40;;;19.50;40.80;;;;;;5003120;28;20433;-63
2021/12/15 10:28:25;;;;;;;1.70;1.60;;;19.50;40.80;;;;;;5003490;28;20934;-64
2021/12/15 10:30:55;;;;;;;1.73;1.50;;;19.50;40.90;;;;;;5001245;28;21038;-62
2021/12/15 10:33:26;;;;;;;1.83;1.73;;;19.50;40.90;;;;;;4998088;28;20426;-62
2021/12/15 10:36:04;;;;;;;1.73;1.63;;;19.50;40.90;;;;;;4993642;28;20542;-62
2021/12/15 10:38:45;;;;;;;2.10;1.60;;;19.50;40.90;;;;;;4999364;28;20504;-62
2021/12/15 10:41:38;;;;;;;1.40;1.30;;;19.50;40.90;;;;;;4999882;28;20465;-63
2021/12/15 10:44:09;;;;;;;1.30;1.20;;;19.50;40.90;;;;;;4999971;28;20537;-63
2021/12/15 10:46:49;;;;;;;1.60;1.50;;;19.50;40.90;;;;;;5000205;28;20431;-62
2021/12/15 10:49:24;;;;;;;1.37;1.27;;;19.50;40.90;;;;;;4997709;28;20533;-62
2021/12/15 10:52:04;;;;;;;2.30;1.30;;;19.50;40.90;;;;;;5002724;28;20453;-62
2021/12/15 10:54:36;;;;;;;1.40;1.30;;;19.50;40.90;;;;;;5004277;28;20506;-62
2021/12/15 10:57:04;;;;;;;1.67;1.57;;;19.50;40.90;;;;;;5002553;28;20450;-62
2021/12/15 10:59:34;;;;;;;1.30;1.20;;;19.50;41.00;;;;;;5002145;28;20465;-62
2021/12/15 11:02:02;;;;;;;1.50;1.40;;;19.50;40.90;;;;;;5000848;28;20978;-62
2021/12/15 11:04:32;;;;;;;1.40;1.30;;;19.40;40.80;;;;;;4999579;28;20512;-62
2021/12/15 11:07:17;;;;;;;1.50;1.40;;;19.50;40.90;;;;;;4998084;28;20485;-64
2021/12/15 11:09:48;;;;;;;1.60;1.50;;;19.40;40.90;;;;;;4997867;28;20425;-63
2021/12/15 11:12:25;;;;;;;1.70;1.60;;;19.40;40.90;;;;;;5004617;28;20651;-63
2021/12/15 11:14:56;;;;;;;1.50;1.40;;;19.40;40.80;;;;;;5005567;28;20464;-63
2021/12/15 11:17:31;;;;;;;1.47;1.37;;;19.40;40.80;;;;;;5009043;28;20883;-63
2021/12/15 11:20:10;;;;;;;1.30;1.20;;;19.40;40.90;;;;;;5002770;28;20453;-63
2021/12/15 11:22:45;;;;;;;1.50;1.40;;;19.40;40.90;;;;;;5000998;28;20848;-63
2021/12/15 11:25:18;;;;;;;1.50;1.40;;;19.40;40.90;;;;;;5003176;28;20437;-62
2021/12/15 11:27:52;;;;;;;1.50;1.40;;;19.40;40.90;;;;;;5003975;28;20477;-62
2021/12/15 11:30:38;;;;;;;1.53;1.43;;;19.40;40.90;;;;;;5002476;28;20473;-64
2021/12/15 11:33:29;;;;;;;1.50;1.40;;;19.40;40.90;;;;;;5005826;28;20785;-62
2021/12/15 11:36:19;;;;;;;1.53;1.43;;;19.50;41.00;;;;;;5017005;28;20798;-64
2021/12/15 11:38:52;;;;;;;1.40;1.30;;;19.40;41.70;;;;;;4999253;28;20470;-63
2021/12/15 11:41:24;;;;;;;1.73;1.63;;;19.40;41.00;;;;;;5003454;28;20545;-63
2021/12/15 11:44:12;;;;;;;3.20;1.70;;;19.40;41.00;;;;;;5001823;28;20465;-63
2021/12/15 11:46:58;;;;;;;1.73;1.63;;;19.40;40.90;;;;;;5003802;28;20497;-63
2021/12/15 11:49:30;;;;;;;1.40;1.30;;;19.40;40.90;;;;;;5003848;28;20549;-63
2021/12/15 11:52:14;;;;;;;1.70;1.60;;;19.40;41.00;;;;;;5001540;28;20453;-63
2021/12/15 11:54:45;;;;;;;1.60;1.50;;;19.40;41.00;;;;;;5000826;28;20454;-62
2021/12/15 11:57:29;;;;;;;1.87;1.60;;;19.40;41.00;;;;;;5002518;28;20477;-62
2021/12/15 12:00:06;;;;;;;2.03;1.93;;;19.40;40.90;;;;;;5001231;28;20489;-63
2021/12/15 12:02:36;;;;;;;1.77;1.67;;;19.40;40.90;;;;;;5004945;28;20871;-63
2021/12/15 12:05:18;;;;;;;2.00;1.80;;;19.40;41.00;;;;;;5000480;28;20462;-62
2021/12/15 12:07:46;;;;;;;1.60;1.50;;;19.40;41.00;;;;;;5004663;28;20442;-62
2021/12/15 12:10:23;;;;;;;4.07;2.10;;;19.40;41.00;;;;;;4999236;28;20449;-63
2021/12/15 12:13:04;;;;;;;2.07;1.97;;;19.40;41.00;;;;;;5002767;28;20481;-62
2021/12/15 12:15:32;;;;;;;2.00;1.80;;;19.40;41.10;;;;;;5002803;28;20443;-62
2021/12/15 12:18:01;;;;;;;2.93;2.03;;;19.50;41.10;;;;;;5005876;28;20442;-62
2021/12/15 12:20:39;;;;;;;2.20;2.10;;;19.40;41.00;;;;;;5000521;28;20549;-61
2021/12/15 12:23:08;;;;;;;1.87;1.77;;;19.40;41.00;;;;;;5006840;28;20460;-62
2021/12/15 12:25:39;;;;;;;1.97;1.87;;;19.40;41.10;;;;;;4999721;28;20458;-62
2021/12/15 12:28:08;;;;;;;2.50;2.30;;;19.40;41.10;;;;;;4999822;28;20442;-63
2021/12/15 12:30:43;;;;;;;2.07;1.97;;;19.40;41.10;;;;;;5004254;28;20446;-62
2021/12/15 12:33:11;;;;;;;2.20;2.00;;;19.40;41.10;;;;;;5002445;28;20954;-62
2021/12/15 12:35:53;;;;;;;2.60;2.40;;;19.40;41.10;;;;;;5018967;28;20868;-61
2021/12/15 12:38:24;;;;;;;3.10;2.90;;;19.40;41.10;;;;;;5001474;28;20483;-61
2021/12/15 12:41:11;;;;;;;2.00;1.90;;;19.40;41.10;;;;;;5003333;28;20469;-61
2021/12/15 12:43:46;;;;;;;2.10;1.80;;;19.40;41.10;;;;;;5001829;28;20487;-61
2021/12/15 12:46:28;;;;;;;2.50;2.30;;;19.40;41.10;;;;;;5000729;28;20966;-61
2021/12/15 13:00:31;;;;;;;4.60;2.37;;;19.40;41.20;;;;;;4975673;28;20967;-61
2021/12/15 13:03:27;;;;;;;5.60;2.67;;;19.40;41.20;;;;;;4997894;28;20473;-61
2021/12/15 13:06:16;;;;;;;2.40;2.30;;;19.40;41.20;;;;;;5003829;28;20489;-61
2021/12/15 13:08:45;;;;;;;2.30;2.10;;;19.40;41.20;;;;;;5000687;28;20879;-61
2021/12/15 13:11:20;;;;;;;2.53;2.33;;;19.40;41.20;;;;;;5001695;28;20453;-61
2021/12/15 13:13:51;;;;;;;2.63;2.43;;;19.40;41.30;;;;;;5004359;28;20476;-61
2021/12/15 13:16:31;;;;;;;2.40;2.20;;;19.40;41.20;;;;;;5002512;28;20532;-60
2021/12/15 13:19:01;;;;;;;2.27;2.10;;;19.40;41.30;;;;;;5002045;28;20434;-60
2021/12/15 13:21:50;;;;;;;3.00;2.30;;;19.40;42.10;;;;;;4998753;28;20458;-61
2021/12/15 13:30:48;;;;;;;2.90;2.70;;;19.40;41.30;;;;;;4998042;28;20463;-61
2021/12/15 13:33:33;;;;;;;2.50;2.40;;;19.40;41.40;;;;;;5002886;28;20449;-61
2021/12/15 13:36:14;;;;;;;3.23;2.57;;;19.40;41.30;;;;;;4998099;28;20465;-61
2021/12/15 13:38:48;;;;;;;3.30;3.10;;;19.40;41.40;;;;;;5000738;28;20477;-61
2021/12/15 13:44:02;;;;;;;2.53;2.33;;;19.40;41.40;;;;;;5001105;28;20955;-60
2021/12/15 13:46:28;;;;;;;2.60;2.40;;;19.40;41.40;;;;;;4997968;28;20450;-60
2021/12/15 13:49:04;;;;;;;3.17;2.97;;;19.40;41.40;;;;;;5003118;28;20438;-61
2021/12/15 13:52:00;;;;;;;3.20;2.63;;;19.40;41.50;;;;;;5002231;28;20219;-60
2021/12/15 13:54:35;;;;;;;3.07;2.87;;;19.40;41.40;;;;;;4999525;28;20435;-60
2021/12/15 13:57:15;;;;;;;2.50;2.40;;;19.40;41.50;;;;;;5001839;28;20508;-60
2021/12/15 13:59:57;;;;;;;2.40;2.30;;;19.40;41.50;;;;;;5002684;28;20825;-62
2021/12/15 14:02:32;;;;;;;2.90;2.70;;;19.40;41.50;;;;;;4996757;28;20460;-62
2021/12/15 14:05:16;;;;;;;2.83;2.63;;;19.40;41.40;;;;;;5000934;28;20453;-62
2021/12/15 14:07:53;;;;;;;3.00;2.80;;;19.40;41.40;;;;;;4998456;28;20457;-62
2021/12/15 14:10:20;;;;;;;2.70;2.50;;;19.40;41.40;;;;;;4999673;28;20796;-60
2021/12/15 14:12:46;;;;;;;2.50;2.30;;;19.40;41.50;;;;;;5001012;28;20990;-61
2021/12/15 14:15:15;;;;;;;2.70;2.50;;;19.40;41.50;;;;;;4998235;28;20458;-62
2021/12/15 14:17:40;;;;;;;2.87;2.67;;;19.40;41.50;;;;;;5003230;28;20670;-61
2021/12/15 14:20:17;;;;;;;3.07;2.87;;;19.40;41.50;;;;;;5002301;28;20539;-61
2021/12/15 14:22:43;;;;;;;2.87;2.67;;;19.40;41.50;;;;;;5000475;28;20220;-61
2021/12/15 14:25:10;;;;;;;3.00;2.80;;;19.40;41.50;;;;;;4996367;28;20488;-61
2021/12/15 14:27:36;;;;;;;3.30;3.00;;;19.40;41.50;;;;;;5001256;28;20432;-61
2021/12/15 14:30:07;;;;;;;3.10;2.70;;;19.40;41.50;;;;;;5001499;28;20438;-61
2021/12/15 14:32:33;;;;;;;2.40;2.20;;;19.40;41.50;;;;;;5001182;28;20243;-60
2021/12/15 14:34:58;;;;;;;3.27;2.97;;;19.40;41.50;;;;;;4996461;28;20525;-60
2021/12/15 14:37:24;;;;;;;3.73;2.80;;;19.40;41.60;;;;;;4999420;28;20302;-60
2021/12/15 14:39:53;;;;;;;2.50;2.40;;;19.40;41.60;;;;;;4997205;28;20279;-60
2021/12/15 14:42:23;;;;;;;2.60;2.40;;;19.40;41.60;;;;;;4998537;28;20581;-60
2021/12/15 14:44:52;;;;;;;3.13;2.93;;;19.40;41.50;;;;;;4996246;28;20866;-61